createdAt,value
2017-03-26T00:00:36.456Z,1015.60
2017-03-26T00:01:38.807Z,1015.65
2017-03-26T00:02:40.231Z,1015.69
2017-03-26T00:03:42.499Z,1015.65
2017-03-26T00:04:44.585Z,1015.61
2017-03-26T00:05:46.598Z,1015.63
2017-03-26T00:06:48.587Z,1015.54
2017-03-26T00:07:50.584Z,1015.50
2017-03-26T00:08:52.981Z,1015.50
2017-03-26T00:09:55.247Z,1015.51
2017-03-26T00:10:56.665Z,1015.51
2017-03-26T00:11:58.659Z,1015.45
2017-03-26T00:13:00.630Z,1015.47
2017-03-26T00:14:02.603Z,1015.42
2017-03-26T00:15:04.563Z,1015.40
2017-03-26T00:16:06.524Z,1015.35
2017-03-26T00:17:07.359Z,1015.38
2017-03-26T00:18:09.493Z,1015.34
2017-03-26T00:19:10.874Z,1015.34
2017-03-26T00:20:13.236Z,1015.34
2017-03-26T00:21:14.664Z,1015.32
2017-03-26T00:22:17.027Z,1015.32
2017-03-26T00:23:17.444Z,1015.26
2017-03-26T00:24:18.867Z,1015.28
2017-03-26T00:25:20.951Z,1015.22
2017-03-26T00:26:23.221Z,1015.30
2017-03-26T00:27:25.224Z,1015.28
2017-03-26T00:28:27.232Z,1015.27
2017-03-26T00:29:29.208Z,1015.24
2017-03-26T00:30:31.186Z,1015.25
2017-03-26T00:31:33.155Z,1015.26
2017-03-26T00:32:35.563Z,1015.29
2017-03-26T00:33:36.979Z,1015.35
2017-03-26T00:34:38.396Z,1015.32
2017-03-26T00:35:39.814Z,1015.37
2017-03-26T00:36:41.244Z,1015.37
2017-03-26T00:37:43.244Z,1015.45
2017-03-26T00:38:44.711Z,1015.43
2017-03-26T00:39:47.127Z,1015.44
2017-03-26T00:40:49.089Z,1015.42
2017-03-26T00:41:51.466Z,1015.45
2017-03-26T00:42:53.702Z,1015.40
2017-03-26T00:43:55.975Z,1015.41
2017-03-26T00:44:57.396Z,1015.38
2017-03-26T00:45:59.284Z,1015.31
2017-03-26T00:47:01.246Z,1015.28
2017-03-26T00:48:03.653Z,1015.19
2017-03-26T00:49:05.075Z,1015.27
2017-03-26T00:50:07.169Z,1015.20
2017-03-26T00:51:09.285Z,1015.24
2017-03-26T00:52:11.445Z,1015.18
2017-03-26T00:53:12.859Z,1015.14
2017-03-26T00:54:15.189Z,1015.11
2017-03-26T00:55:16.606Z,1015.12
2017-03-26T00:56:18.788Z,1015.08
2017-03-26T00:57:20.990Z,1015.18
2017-03-26T00:58:22.437Z,1015.19
2017-03-26T00:59:24.739Z,1015.11
2017-03-26T01:00:26.990Z,1015.17
2017-03-26T01:01:28.415Z,1015.15
2017-03-26T01:02:30.708Z,1015.10
2017-03-26T01:03:32.991Z,1015.14
2017-03-26T01:04:34.412Z,1015.17
2017-03-26T01:05:36.449Z,1015.08
2017-03-26T01:06:38.335Z,1015.15
2017-03-26T01:07:40.757Z,1015.09
2017-03-26T01:08:42.176Z,1015.10
2017-03-26T01:09:44.585Z,1015.08
2017-03-26T01:10:46.807Z,1015.06
2017-03-26T01:11:49.119Z,1015.08
2017-03-26T01:12:50.540Z,1015.06
2017-03-26T01:13:52.849Z,1015.09
2017-03-26T01:14:54.266Z,1015.09
2017-03-26T01:15:56.349Z,1015.12
2017-03-26T01:16:58.395Z,1015.14
2017-03-26T01:18:00.546Z,1015.14
2017-03-26T01:19:01.970Z,1015.16
2017-03-26T01:20:04.202Z,1015.17
2017-03-26T01:21:06.507Z,1015.16
2017-03-26T01:22:07.926Z,1015.22
2017-03-26T01:23:09.880Z,1015.20
2017-03-26T01:24:11.840Z,1015.25
2017-03-26T01:25:13.828Z,1015.23
2017-03-26T01:26:16.166Z,1015.17
2017-03-26T01:27:17.583Z,1015.13
2017-03-26T01:28:19.009Z,1015.13
2017-03-26T01:29:20.425Z,1015.08
2017-03-26T01:30:21.839Z,1015.11
2017-03-26T01:31:23.255Z,1015.10
2017-03-26T01:32:24.671Z,1015.12
2017-03-26T01:33:26.084Z,1015.18
2017-03-26T01:34:27.496Z,1015.15
2017-03-26T01:35:28.915Z,1015.14
2017-03-26T01:36:30.329Z,1015.19
2017-03-26T01:37:31.743Z,1015.17
2017-03-26T01:38:33.170Z,1015.21
2017-03-26T01:39:34.596Z,1015.14
2017-03-26T01:40:36.020Z,1015.19
2017-03-26T01:41:37.437Z,1015.14
2017-03-26T01:42:38.854Z,1015.15
2017-03-26T01:43:40.275Z,1015.14
2017-03-26T01:44:41.695Z,1015.13
2017-03-26T01:45:43.115Z,1015.20
2017-03-26T01:46:44.535Z,1015.22
2017-03-26T01:47:45.951Z,1015.26
2017-03-26T01:48:47.360Z,1015.27
2017-03-26T01:49:48.780Z,1015.29
2017-03-26T01:50:50.195Z,1015.28
2017-03-26T01:51:51.613Z,1015.24
2017-03-26T01:52:53.087Z,1015.22
2017-03-26T01:53:54.500Z,1015.23
2017-03-26T01:54:55.929Z,1015.21
2017-03-26T01:55:57.346Z,1015.28
2017-03-26T01:56:58.768Z,1015.26
2017-03-26T01:58:00.180Z,1015.24
2017-03-26T01:59:01.599Z,1015.26
2017-03-26T02:00:03.018Z,1015.26
2017-03-26T02:01:04.438Z,1015.21
2017-03-26T02:02:05.854Z,1015.16
2017-03-26T02:03:07.275Z,1015.17
2017-03-26T02:04:08.686Z,1015.17
2017-03-26T02:05:10.102Z,1015.20
2017-03-26T02:06:11.528Z,1015.27
2017-03-26T02:07:12.944Z,1015.23
2017-03-26T02:08:14.361Z,1015.23
2017-03-26T02:09:15.778Z,1015.22
2017-03-26T02:10:17.194Z,1015.18
2017-03-26T02:11:18.612Z,1015.14
2017-03-26T02:12:20.034Z,1015.19
2017-03-26T02:13:21.450Z,1015.22
2017-03-26T02:14:22.867Z,1015.25
2017-03-26T02:15:24.283Z,1015.22
2017-03-26T02:16:25.706Z,1015.20
2017-03-26T02:17:27.130Z,1015.20
2017-03-26T02:18:28.550Z,1015.18
2017-03-26T02:19:29.967Z,1015.15
2017-03-26T02:20:31.393Z,1015.14
2017-03-26T02:21:32.809Z,1015.16
2017-03-26T02:22:34.221Z,1015.14
2017-03-26T02:23:35.638Z,1015.15
2017-03-26T02:24:37.060Z,1015.17
2017-03-26T02:25:38.475Z,1015.18
2017-03-26T02:26:39.889Z,1015.16
2017-03-26T02:27:41.303Z,1015.07
2017-03-26T02:28:42.718Z,1015.05
2017-03-26T02:29:44.137Z,1015.11
2017-03-26T02:30:45.553Z,1015.08
2017-03-26T02:31:46.970Z,1015.10
2017-03-26T02:32:48.385Z,1015.07
2017-03-26T02:33:49.799Z,1015.02
2017-03-26T02:34:51.266Z,1014.99
2017-03-26T02:35:52.686Z,1014.97
2017-03-26T02:36:54.102Z,1014.91
2017-03-26T02:37:55.520Z,1014.94
2017-03-26T02:38:56.951Z,1014.88
2017-03-26T02:39:58.368Z,1014.85
2017-03-26T02:41:00.619Z,1014.78
2017-03-26T02:42:02.046Z,1014.74
2017-03-26T02:43:03.464Z,1014.70
2017-03-26T02:44:04.894Z,1014.66
2017-03-26T02:45:06.309Z,1014.69
2017-03-26T02:46:07.727Z,1014.70
2017-03-26T02:47:09.145Z,1014.74
2017-03-26T02:48:10.569Z,1014.73
2017-03-26T02:49:11.991Z,1014.76
2017-03-26T02:50:13.402Z,1014.69
2017-03-26T02:51:14.819Z,1014.75
2017-03-26T02:52:16.239Z,1014.79
2017-03-26T02:53:17.657Z,1014.78
2017-03-26T02:54:19.077Z,1014.78
2017-03-26T02:55:20.495Z,1014.79
2017-03-26T02:56:21.909Z,1014.83
2017-03-26T02:57:23.323Z,1014.88
2017-03-26T02:58:24.742Z,1014.91
2017-03-26T02:59:26.154Z,1014.88
2017-03-26T03:00:27.583Z,1014.86
2017-03-26T03:01:29.005Z,1014.85
2017-03-26T03:02:32.519Z,1014.82
2017-03-26T03:03:33.934Z,1014.83
2017-03-26T03:04:35.356Z,1014.90
2017-03-26T03:05:36.769Z,1014.91
2017-03-26T03:06:38.181Z,1014.91
2017-03-26T03:07:39.599Z,1014.92
2017-03-26T03:08:41.017Z,1014.80
2017-03-26T03:09:42.431Z,1014.79
2017-03-26T03:10:43.847Z,1014.85
2017-03-26T03:11:45.264Z,1014.87
2017-03-26T03:12:46.682Z,1014.87
2017-03-26T03:13:48.101Z,1014.89
2017-03-26T03:14:49.524Z,1014.86
2017-03-26T03:15:51.016Z,1014.84
2017-03-26T03:16:52.472Z,1014.81
2017-03-26T03:17:53.894Z,1014.87
2017-03-26T03:18:55.310Z,1014.82
2017-03-26T03:19:56.726Z,1014.86
2017-03-26T03:20:58.147Z,1014.84
2017-03-26T03:21:59.564Z,1014.87
2017-03-26T03:23:00.988Z,1014.88
2017-03-26T03:24:02.398Z,1014.92
2017-03-26T03:25:03.814Z,1014.86
2017-03-26T03:26:05.219Z,1014.81
2017-03-26T03:27:06.636Z,1014.78
2017-03-26T03:28:08.052Z,1014.78
2017-03-26T03:29:09.472Z,1014.74
2017-03-26T03:30:10.893Z,1014.76
2017-03-26T03:31:12.305Z,1014.76
2017-03-26T03:32:13.723Z,1014.79
2017-03-26T03:33:15.151Z,1014.85
2017-03-26T03:34:16.565Z,1014.84
2017-03-26T03:35:17.985Z,1014.82
2017-03-26T03:36:19.400Z,1014.82
2017-03-26T03:37:20.814Z,1014.85
2017-03-26T03:38:22.233Z,1014.84
2017-03-26T03:39:23.650Z,1014.84
2017-03-26T03:40:25.064Z,1014.82
2017-03-26T03:41:26.481Z,1014.78
2017-03-26T03:42:27.899Z,1014.80
2017-03-26T03:43:29.312Z,1014.79
2017-03-26T03:44:30.729Z,1014.84
2017-03-26T03:45:32.151Z,1014.82
2017-03-26T03:46:33.571Z,1014.79
2017-03-26T03:47:34.991Z,1014.78
2017-03-26T03:48:36.405Z,1014.79
2017-03-26T03:49:37.862Z,1014.81
2017-03-26T03:50:39.235Z,1014.82
2017-03-26T03:51:40.649Z,1014.79
2017-03-26T03:52:42.064Z,1014.80
2017-03-26T03:53:43.477Z,1014.83
2017-03-26T03:54:44.915Z,1014.81
2017-03-26T03:55:46.330Z,1014.86
2017-03-26T03:56:47.748Z,1014.86
2017-03-26T03:57:49.169Z,1014.81
2017-03-26T03:58:50.588Z,1014.82
2017-03-26T03:59:52.006Z,1014.79
2017-03-26T04:00:53.422Z,1014.76
2017-03-26T04:01:54.840Z,1014.79
2017-03-26T04:02:56.267Z,1014.77
2017-03-26T04:03:57.681Z,1014.80
2017-03-26T04:04:59.098Z,1014.78
2017-03-26T04:06:00.513Z,1014.74
2017-03-26T04:07:01.925Z,1014.66
2017-03-26T04:08:03.343Z,1014.64
2017-03-26T04:09:04.759Z,1014.68
2017-03-26T04:10:06.176Z,1014.61
2017-03-26T04:11:07.591Z,1014.59
2017-03-26T04:12:09.021Z,1014.57
2017-03-26T04:13:10.435Z,1014.64
2017-03-26T04:14:11.859Z,1014.69
2017-03-26T04:15:13.283Z,1014.68
2017-03-26T04:16:14.694Z,1014.68
2017-03-26T04:17:16.107Z,1014.64
2017-03-26T04:18:17.522Z,1014.63
2017-03-26T04:19:18.936Z,1014.59
2017-03-26T04:20:20.349Z,1014.54
2017-03-26T04:21:21.764Z,1014.54
2017-03-26T04:22:23.222Z,1014.54
2017-03-26T04:23:24.594Z,1014.50
2017-03-26T04:24:26.013Z,1014.51
2017-03-26T04:25:27.431Z,1014.50
2017-03-26T04:26:28.844Z,1014.53
2017-03-26T04:27:30.261Z,1014.56
2017-03-26T04:28:31.678Z,1014.52
2017-03-26T04:29:33.103Z,1014.50
2017-03-26T04:30:34.518Z,1014.51
2017-03-26T04:31:35.934Z,1014.52
2017-03-26T04:32:37.350Z,1014.55
2017-03-26T04:33:38.789Z,1014.61
2017-03-26T04:34:40.202Z,1014.63
2017-03-26T04:35:41.615Z,1014.63
2017-03-26T04:36:43.038Z,1014.63
2017-03-26T04:37:44.458Z,1014.63
2017-03-26T04:38:45.871Z,1014.61
2017-03-26T04:39:47.304Z,1014.62
2017-03-26T04:40:48.721Z,1014.63
2017-03-26T04:41:50.146Z,1014.65
2017-03-26T04:42:51.574Z,1014.69
2017-03-26T04:43:52.995Z,1014.70
2017-03-26T04:44:54.413Z,1014.70
2017-03-26T04:45:55.836Z,1014.70
2017-03-26T04:46:57.250Z,1014.69
2017-03-26T04:47:58.665Z,1014.70
2017-03-26T04:49:00.087Z,1014.73
2017-03-26T04:50:01.497Z,1014.70
2017-03-26T04:51:02.910Z,1014.70
2017-03-26T04:52:04.331Z,1014.76
2017-03-26T04:53:05.747Z,1014.78
2017-03-26T04:54:07.164Z,1014.75
2017-03-26T04:55:08.582Z,1014.79
2017-03-26T04:56:09.998Z,1014.81
2017-03-26T04:57:11.414Z,1014.85
2017-03-26T04:58:12.833Z,1014.87
2017-03-26T04:59:14.246Z,1014.82
2017-03-26T05:00:15.671Z,1014.83
2017-03-26T05:01:17.112Z,1014.79
2017-03-26T05:02:18.499Z,1014.85
2017-03-26T05:03:19.918Z,1014.86
2017-03-26T05:04:21.332Z,1014.87
2017-03-26T05:05:22.750Z,1014.86
2017-03-26T05:06:24.169Z,1014.87
2017-03-26T05:07:25.581Z,1014.84
2017-03-26T05:08:27.002Z,1014.77
2017-03-26T05:09:28.415Z,1014.75
2017-03-26T05:10:29.841Z,1014.74
2017-03-26T05:11:31.263Z,1014.72
2017-03-26T05:12:32.682Z,1014.70
2017-03-26T05:13:34.101Z,1014.71
2017-03-26T05:14:35.520Z,1014.68
2017-03-26T05:15:36.942Z,1014.71
2017-03-26T05:16:38.366Z,1014.69
2017-03-26T05:17:39.787Z,1014.71
2017-03-26T05:18:41.210Z,1014.66
2017-03-26T05:19:42.622Z,1014.69
2017-03-26T05:20:44.043Z,1014.71
2017-03-26T05:21:45.465Z,1014.80
2017-03-26T05:22:46.882Z,1014.79
2017-03-26T05:23:48.303Z,1014.82
2017-03-26T05:24:49.717Z,1014.78
2017-03-26T05:25:51.146Z,1014.80
2017-03-26T05:26:52.565Z,1014.77
2017-03-26T05:27:53.980Z,1014.78
2017-03-26T05:28:55.399Z,1014.77
2017-03-26T05:29:56.819Z,1014.77
2017-03-26T05:30:58.241Z,1014.79
2017-03-26T05:31:59.657Z,1014.81
2017-03-26T05:33:01.072Z,1014.86
2017-03-26T05:34:02.497Z,1014.90
2017-03-26T05:35:03.922Z,1014.87
2017-03-26T05:36:05.347Z,1014.94
2017-03-26T05:37:06.766Z,1014.88
2017-03-26T05:38:08.186Z,1014.87
2017-03-26T05:39:09.601Z,1014.94
2017-03-26T05:40:11.019Z,1014.91
2017-03-26T05:41:12.447Z,1015.00
2017-03-26T05:42:13.861Z,1014.94
2017-03-26T05:43:15.290Z,1014.97
2017-03-26T05:44:16.713Z,1014.95
2017-03-26T05:45:18.129Z,1014.98
2017-03-26T05:46:19.549Z,1015.03
2017-03-26T05:47:20.969Z,1015.05
2017-03-26T05:48:22.389Z,1015.07
2017-03-26T05:49:23.835Z,1015.07
2017-03-26T05:50:25.268Z,1015.10
2017-03-26T05:51:26.685Z,1015.14
2017-03-26T05:52:28.107Z,1015.16
2017-03-26T05:53:29.532Z,1015.18
2017-03-26T05:54:30.982Z,1015.20
2017-03-26T05:55:32.411Z,1015.21
2017-03-26T05:56:33.830Z,1015.11
2017-03-26T05:57:35.337Z,1015.13
2017-03-26T05:58:36.754Z,1015.16
2017-03-26T05:59:38.176Z,1015.13
2017-03-26T06:00:39.597Z,1015.11
2017-03-26T06:01:41.070Z,1015.16
2017-03-26T06:02:42.488Z,1015.20
2017-03-26T06:03:43.909Z,1015.19
2017-03-26T06:04:45.325Z,1015.20
2017-03-26T06:05:46.748Z,1015.26
2017-03-26T06:06:48.166Z,1015.27
2017-03-26T06:07:49.582Z,1015.27
2017-03-26T06:08:51.000Z,1015.27
2017-03-26T06:09:52.418Z,1015.26
2017-03-26T06:10:53.848Z,1015.27
2017-03-26T06:11:55.287Z,1015.29
2017-03-26T06:12:56.703Z,1015.33
2017-03-26T06:13:58.125Z,1015.34
2017-03-26T06:14:59.552Z,1015.37
2017-03-26T06:16:00.976Z,1015.41
2017-03-26T06:17:02.398Z,1015.47
2017-03-26T06:18:03.829Z,1015.50
2017-03-26T06:19:05.245Z,1015.57
2017-03-26T06:20:06.673Z,1015.52
2017-03-26T06:21:08.091Z,1015.58
2017-03-26T06:22:09.505Z,1015.61
2017-03-26T06:23:10.922Z,1015.61
2017-03-26T06:24:12.343Z,1015.63
2017-03-26T06:25:13.765Z,1015.61
2017-03-26T06:26:15.184Z,1015.63
2017-03-26T06:27:16.616Z,1015.65
2017-03-26T06:28:18.033Z,1015.63
2017-03-26T06:29:19.448Z,1015.68
2017-03-26T06:30:20.879Z,1015.61
2017-03-26T06:31:22.299Z,1015.64
2017-03-26T06:32:23.723Z,1015.66
2017-03-26T06:33:25.148Z,1015.68
2017-03-26T06:34:26.570Z,1015.64
2017-03-26T06:35:27.994Z,1015.64
2017-03-26T06:36:29.421Z,1015.63
2017-03-26T06:37:30.848Z,1015.63
2017-03-26T06:38:32.278Z,1015.62
2017-03-26T06:39:33.696Z,1015.67
2017-03-26T06:40:35.128Z,1015.68
2017-03-26T06:41:36.547Z,1015.70
2017-03-26T06:42:37.965Z,1015.67
2017-03-26T06:43:39.384Z,1015.72
2017-03-26T06:44:40.803Z,1015.72
2017-03-26T06:45:42.228Z,1015.74
2017-03-26T06:46:43.657Z,1015.79
2017-03-26T06:47:45.077Z,1015.79
2017-03-26T06:48:46.500Z,1015.81
2017-03-26T06:49:47.931Z,1015.83
2017-03-26T06:50:49.363Z,1015.81
2017-03-26T06:51:50.841Z,1015.83
2017-03-26T06:52:52.277Z,1015.82
2017-03-26T06:53:53.696Z,1015.81
2017-03-26T06:54:55.127Z,1015.80
2017-03-26T06:55:56.559Z,1015.79
2017-03-26T06:56:57.985Z,1015.80
2017-03-26T06:57:59.398Z,1015.78
2017-03-26T06:59:00.853Z,1015.84
2017-03-26T07:00:02.289Z,1015.88
2017-03-26T07:01:03.693Z,1015.93
2017-03-26T07:02:05.131Z,1015.90
2017-03-26T07:03:06.557Z,1015.87
2017-03-26T07:04:07.976Z,1015.91
2017-03-26T07:05:09.400Z,1015.97
2017-03-26T07:06:10.822Z,1015.93
2017-03-26T07:07:12.238Z,1015.96
2017-03-26T07:08:13.661Z,1016.00
2017-03-26T07:09:15.085Z,1015.95
2017-03-26T07:10:16.505Z,1015.97
2017-03-26T07:11:17.928Z,1015.95
2017-03-26T07:12:19.356Z,1015.92
2017-03-26T07:13:20.779Z,1015.92
2017-03-26T07:14:22.209Z,1015.94
2017-03-26T07:15:23.639Z,1015.95
2017-03-26T07:16:25.068Z,1015.96
2017-03-26T07:17:26.488Z,1015.91
2017-03-26T07:18:27.911Z,1015.91
2017-03-26T07:19:29.323Z,1015.93
2017-03-26T07:20:30.748Z,1015.94
2017-03-26T07:21:32.169Z,1015.95
2017-03-26T07:22:33.593Z,1015.92
2017-03-26T07:23:35.016Z,1015.94
2017-03-26T07:24:36.434Z,1015.96
2017-03-26T07:25:37.856Z,1015.95
2017-03-26T07:26:39.274Z,1015.91
2017-03-26T07:27:40.694Z,1015.97
2017-03-26T07:28:42.114Z,1015.98
2017-03-26T07:29:43.538Z,1016.01
2017-03-26T07:30:44.958Z,1015.99
2017-03-26T07:31:46.376Z,1015.99
2017-03-26T07:32:47.794Z,1016.00
2017-03-26T07:33:49.221Z,1016.00
2017-03-26T07:34:50.650Z,1016.02
2017-03-26T07:35:52.069Z,1016.06
2017-03-26T07:36:53.493Z,1016.08
2017-03-26T07:37:54.908Z,1016.06
2017-03-26T07:38:56.336Z,1016.03
2017-03-26T07:39:57.765Z,1016.02
2017-03-26T07:40:59.189Z,1016.03
2017-03-26T07:42:00.649Z,1016.01
2017-03-26T07:43:02.078Z,1016.00
2017-03-26T07:44:03.496Z,1016.00
2017-03-26T07:45:04.919Z,1016.00
2017-03-26T07:46:06.349Z,1015.96
2017-03-26T07:47:07.768Z,1015.99
2017-03-26T07:48:09.199Z,1016.01
2017-03-26T07:49:10.628Z,1016.03
2017-03-26T07:50:12.048Z,1015.96
2017-03-26T07:51:13.477Z,1016.00
2017-03-26T07:52:14.900Z,1015.97
2017-03-26T07:53:16.322Z,1015.98
2017-03-26T07:54:17.745Z,1016.04
2017-03-26T07:55:19.171Z,1016.02
2017-03-26T07:56:20.588Z,1016.03
2017-03-26T07:57:22.010Z,1015.98
2017-03-26T07:58:23.427Z,1016.01
2017-03-26T07:59:24.847Z,1015.97
2017-03-26T08:00:26.277Z,1015.99
2017-03-26T08:01:27.699Z,1016.06
2017-03-26T08:02:29.119Z,1016.05
2017-03-26T08:03:30.540Z,1016.08
2017-03-26T08:04:31.959Z,1016.09
2017-03-26T08:05:33.391Z,1016.10
2017-03-26T08:06:34.814Z,1016.06
2017-03-26T08:07:36.234Z,1016.07
2017-03-26T08:08:37.656Z,1016.09
2017-03-26T08:09:39.081Z,1016.03
2017-03-26T08:10:40.503Z,1016.08
2017-03-26T08:11:41.937Z,1016.04
2017-03-26T08:12:43.365Z,1016.05
2017-03-26T08:13:44.787Z,1016.06
2017-03-26T08:14:46.216Z,1016.01
2017-03-26T08:15:47.647Z,1016.00
2017-03-26T08:16:49.060Z,1015.96
2017-03-26T08:17:50.487Z,1015.94
2017-03-26T08:18:51.907Z,1015.95
2017-03-26T08:19:53.327Z,1015.92
2017-03-26T08:20:54.745Z,1015.94
2017-03-26T08:21:56.165Z,1015.93
2017-03-26T08:22:57.596Z,1015.97
2017-03-26T08:23:59.030Z,1015.93
2017-03-26T08:25:00.449Z,1015.97
2017-03-26T08:26:01.868Z,1015.96
2017-03-26T08:27:03.290Z,1015.98
2017-03-26T08:28:04.708Z,1015.98
2017-03-26T08:29:06.148Z,1015.98
2017-03-26T08:30:07.566Z,1015.98
2017-03-26T08:31:08.991Z,1016.01
2017-03-26T08:32:10.410Z,1015.95
2017-03-26T08:33:11.834Z,1015.98
2017-03-26T08:34:13.261Z,1016.02
2017-03-26T08:35:14.684Z,1015.96
2017-03-26T08:36:16.110Z,1016.02
2017-03-26T08:37:17.534Z,1016.03
2017-03-26T08:38:19.022Z,1016.00
2017-03-26T08:39:20.452Z,1015.98
2017-03-26T08:40:21.876Z,1015.98
2017-03-26T08:41:23.291Z,1015.97
2017-03-26T08:42:24.731Z,1015.95
2017-03-26T08:43:26.160Z,1015.94
2017-03-26T08:44:27.588Z,1015.96
2017-03-26T08:45:29.013Z,1015.93
2017-03-26T08:46:31.557Z,1015.92
2017-03-26T08:47:32.983Z,1015.91
2017-03-26T08:48:34.411Z,1015.93
2017-03-26T08:49:35.834Z,1015.96
2017-03-26T08:50:37.269Z,1015.96
2017-03-26T08:51:38.700Z,1015.97
2017-03-26T08:52:40.121Z,1016.02
2017-03-26T08:53:41.552Z,1015.95
2017-03-26T08:54:42.969Z,1015.98
2017-03-26T08:55:44.393Z,1016.05
2017-03-26T08:56:45.819Z,1016.02
2017-03-26T08:57:47.249Z,1016.02
2017-03-26T08:58:48.677Z,1016.01
2017-03-26T08:59:50.106Z,1016.05
2017-03-26T09:00:51.542Z,1015.98
2017-03-26T09:01:52.960Z,1016.02
2017-03-26T09:02:54.386Z,1015.99
2017-03-26T09:03:55.818Z,1016.00
2017-03-26T09:04:57.247Z,1016.01
2017-03-26T09:05:58.678Z,1015.98
2017-03-26T09:07:00.107Z,1016.02
2017-03-26T09:08:01.532Z,1016.10
2017-03-26T09:09:02.962Z,1016.06
2017-03-26T09:10:04.407Z,1016.08
2017-03-26T09:11:05.831Z,1016.07
2017-03-26T09:12:07.298Z,1016.09
2017-03-26T09:13:08.688Z,1016.03
2017-03-26T09:14:10.112Z,1016.08
2017-03-26T09:15:11.534Z,1016.02
2017-03-26T09:16:12.967Z,1016.04
2017-03-26T09:17:14.393Z,1015.94
2017-03-26T09:18:15.815Z,1015.95
2017-03-26T09:19:17.240Z,1015.95
2017-03-26T09:20:18.656Z,1016.00
2017-03-26T09:21:20.083Z,1016.02
2017-03-26T09:22:21.505Z,1016.05
2017-03-26T09:23:22.932Z,1015.98
2017-03-26T09:24:24.354Z,1015.97
2017-03-26T09:25:25.781Z,1015.93
2017-03-26T09:26:27.204Z,1015.94
2017-03-26T09:27:28.627Z,1015.96
2017-03-26T09:28:30.053Z,1016.00
2017-03-26T09:29:31.490Z,1015.98
2017-03-26T09:30:32.923Z,1016.00
2017-03-26T09:31:34.350Z,1015.94
2017-03-26T09:32:35.775Z,1015.92
2017-03-26T09:33:37.204Z,1015.90
2017-03-26T09:34:38.629Z,1015.88
2017-03-26T09:35:40.065Z,1015.84
2017-03-26T09:36:42.318Z,1015.91
2017-03-26T09:37:43.745Z,1015.94
2017-03-26T09:38:45.172Z,1015.93
2017-03-26T09:39:46.599Z,1015.86
2017-03-26T09:40:48.024Z,1015.92
2017-03-26T09:41:49.458Z,1015.89
2017-03-26T09:42:50.892Z,1015.90
2017-03-26T09:43:52.310Z,1015.87
2017-03-26T09:44:53.736Z,1015.88
2017-03-26T09:45:55.163Z,1015.85
2017-03-26T09:46:56.590Z,1015.86
2017-03-26T09:47:58.012Z,1015.88
2017-03-26T09:48:59.437Z,1015.91
2017-03-26T09:50:00.860Z,1015.89
2017-03-26T09:51:02.293Z,1015.87
2017-03-26T09:52:03.735Z,1015.84
2017-03-26T09:53:05.160Z,1015.82
2017-03-26T09:54:06.587Z,1015.82
2017-03-26T09:55:08.012Z,1015.85
2017-03-26T09:56:09.440Z,1015.82
2017-03-26T09:57:10.878Z,1015.81
2017-03-26T09:58:12.305Z,1015.74
2017-03-26T09:59:13.745Z,1015.79
2017-03-26T10:00:16.674Z,1015.75
2017-03-26T10:01:18.103Z,1015.74
2017-03-26T10:02:19.527Z,1015.73
2017-03-26T10:03:20.958Z,1015.72
2017-03-26T10:04:22.380Z,1015.69
2017-03-26T10:05:23.808Z,1015.62
2017-03-26T10:06:25.234Z,1015.63
2017-03-26T10:07:26.670Z,1015.65
2017-03-26T10:08:28.095Z,1015.62
2017-03-26T10:09:29.522Z,1015.60
2017-03-26T10:10:30.952Z,1015.64
2017-03-26T10:11:32.404Z,1015.66
2017-03-26T10:12:33.829Z,1015.61
2017-03-26T10:13:35.258Z,1015.59
2017-03-26T10:14:36.721Z,1015.60
2017-03-26T10:15:38.145Z,1015.63
2017-03-26T10:16:39.579Z,1015.60
2017-03-26T10:17:41.009Z,1015.61
2017-03-26T10:18:42.437Z,1015.61
2017-03-26T10:19:43.870Z,1015.70
2017-03-26T10:20:45.345Z,1015.63
2017-03-26T10:21:46.727Z,1015.62
2017-03-26T10:22:48.158Z,1015.61
2017-03-26T10:23:49.585Z,1015.65
2017-03-26T10:24:51.021Z,1015.61
2017-03-26T10:25:52.454Z,1015.65
2017-03-26T10:26:53.884Z,1015.59
2017-03-26T10:27:55.313Z,1015.56
2017-03-26T10:28:56.741Z,1015.57
2017-03-26T10:29:58.183Z,1015.52
2017-03-26T10:30:59.609Z,1015.54
2017-03-26T10:32:01.032Z,1015.55
2017-03-26T10:33:02.452Z,1015.52
2017-03-26T10:34:03.883Z,1015.50
2017-03-26T10:35:05.311Z,1015.53
2017-03-26T10:36:06.740Z,1015.52
2017-03-26T10:37:08.169Z,1015.48
2017-03-26T10:38:09.595Z,1015.51
2017-03-26T10:39:11.024Z,1015.54
2017-03-26T10:40:12.453Z,1015.55
2017-03-26T10:41:13.883Z,1015.53
2017-03-26T10:42:15.310Z,1015.58
2017-03-26T10:43:16.740Z,1015.53
2017-03-26T10:44:18.172Z,1015.52
2017-03-26T10:45:19.599Z,1015.56
2017-03-26T10:46:21.026Z,1015.46
2017-03-26T10:47:22.451Z,1015.47
2017-03-26T10:48:23.875Z,1015.39
2017-03-26T10:49:25.302Z,1015.41
2017-03-26T10:50:26.733Z,1015.36
2017-03-26T10:51:28.163Z,1015.38
2017-03-26T10:52:29.586Z,1015.35
2017-03-26T10:53:31.006Z,1015.35
2017-03-26T10:54:32.432Z,1015.40
2017-03-26T10:55:33.868Z,1015.36
2017-03-26T10:56:35.300Z,1015.34
2017-03-26T10:57:36.729Z,1015.35
2017-03-26T10:58:38.156Z,1015.33
2017-03-26T10:59:39.588Z,1015.33
2017-03-26T11:00:41.030Z,1015.41
2017-03-26T11:01:42.456Z,1015.34
2017-03-26T11:02:43.887Z,1015.35
2017-03-26T11:03:45.313Z,1015.37
2017-03-26T11:04:46.748Z,1015.42
2017-03-26T11:05:48.187Z,1015.36
2017-03-26T11:06:49.609Z,1015.35
2017-03-26T11:07:51.037Z,1015.35
2017-03-26T11:08:52.465Z,1015.37
2017-03-26T11:09:53.888Z,1015.29
2017-03-26T11:10:55.322Z,1015.26
2017-03-26T11:11:56.748Z,1015.30
2017-03-26T11:12:58.179Z,1015.27
2017-03-26T11:13:59.611Z,1015.25
2017-03-26T11:15:01.053Z,1015.20
2017-03-26T11:16:02.484Z,1015.22
2017-03-26T11:17:03.906Z,1015.20
2017-03-26T11:18:05.337Z,1015.22
2017-03-26T11:19:06.792Z,1015.22
2017-03-26T11:20:08.223Z,1015.17
2017-03-26T11:21:09.653Z,1015.13
2017-03-26T11:22:11.084Z,1015.11
2017-03-26T11:23:12.518Z,1015.11
2017-03-26T11:24:13.994Z,1015.06
2017-03-26T11:25:15.370Z,1015.07
2017-03-26T11:26:16.887Z,1015.03
2017-03-26T11:27:18.317Z,1015.13
2017-03-26T11:28:19.748Z,1015.07
2017-03-26T11:29:21.177Z,1015.07
2017-03-26T11:30:22.709Z,1015.04
2017-03-26T11:31:24.138Z,1015.10
2017-03-26T11:32:25.568Z,1015.11
2017-03-26T11:33:27.000Z,1015.03
2017-03-26T11:34:28.429Z,1015.03
2017-03-26T11:35:29.860Z,1015.04
2017-03-26T11:36:31.332Z,1015.00
2017-03-26T11:37:32.762Z,1015.03
2017-03-26T11:38:34.206Z,1015.04
2017-03-26T11:39:35.627Z,1015.04
2017-03-26T11:40:37.080Z,1015.05
2017-03-26T11:41:38.562Z,1015.03
2017-03-26T11:42:40.003Z,1015.02
2017-03-26T11:43:41.426Z,1015.00
2017-03-26T11:44:42.908Z,1014.98
2017-03-26T11:45:44.343Z,1014.97
2017-03-26T11:46:45.771Z,1015.01
2017-03-26T11:47:47.233Z,1014.96
2017-03-26T11:48:48.667Z,1014.96
2017-03-26T11:49:50.092Z,1014.96
2017-03-26T11:50:51.525Z,1014.94
2017-03-26T11:51:53.071Z,1014.93
2017-03-26T11:52:54.507Z,1014.86
2017-03-26T11:53:55.943Z,1014.90
2017-03-26T11:54:57.372Z,1014.88
2017-03-26T11:55:58.833Z,1014.80
2017-03-26T11:57:00.263Z,1014.90
2017-03-26T11:58:01.698Z,1014.83
2017-03-26T11:59:03.133Z,1014.84
2017-03-26T12:00:04.576Z,1014.88
2017-03-26T12:01:06.016Z,1014.88
2017-03-26T12:02:07.455Z,1014.89
2017-03-26T12:03:08.889Z,1014.93
2017-03-26T12:04:10.328Z,1014.93
2017-03-26T12:05:11.763Z,1014.88
2017-03-26T12:06:13.203Z,1014.92
2017-03-26T12:07:14.675Z,1014.87
2017-03-26T12:08:16.101Z,1014.86
2017-03-26T12:09:17.527Z,1014.87
2017-03-26T12:10:19.022Z,1014.92
2017-03-26T12:11:20.452Z,1014.91
2017-03-26T12:12:21.883Z,1014.89
2017-03-26T12:13:23.312Z,1014.90
2017-03-26T12:14:24.815Z,1014.92
2017-03-26T12:15:26.245Z,1014.88
2017-03-26T12:16:27.683Z,1014.89
2017-03-26T12:17:29.119Z,1014.88
2017-03-26T12:18:30.561Z,1014.91
2017-03-26T12:19:31.995Z,1014.86
2017-03-26T12:20:33.435Z,1014.84
2017-03-26T12:21:34.877Z,1014.90
2017-03-26T12:22:36.312Z,1014.90
2017-03-26T12:23:37.750Z,1014.84